sensor_id;sensor_type;location;lat;lon;timestamp;pressure;altitude;pressure_sealevel;temperature;humidity
14882;BME280;7533;51.278;12.588;2023-08-24T00:00:44;100413.31;;;29.62;56.09
14882;BME280;7533;51.278;12.588;2023-08-24T00:05:47;100406.31;;;29.60;56.14
14882;BME280;7533;51.278;12.588;2023-08-24T00:10:52;100403.63;;;29.50;56.30
14882;BME280;7533;51.278;12.588;2023-08-24T00:15:54;100402.38;;;29.44;56.89
14882;BME280;7533;51.278;12.588;2023-08-24T00:20:57;100406.41;;;29.40;56.67
14882;BME280;7533;51.278;12.588;2023-08-24T00:26:02;100403.00;;;29.38;57.08
14882;BME280;7533;51.278;12.588;2023-08-24T00:31:05;100395.16;;;29.35;57.25
14882;BME280;7533;51.278;12.588;2023-08-24T00:36:08;100390.91;;;29.23;57.30
14882;BME280;7533;51.278;12.588;2023-08-24T00:41:14;100401.19;;;29.11;57.37
14882;BME280;7533;51.278;12.588;2023-08-24T00:46:17;100383.44;;;29.25;57.07
14882;BME280;7533;51.278;12.588;2023-08-24T00:51:21;100384.81;;;28.93;57.55
14882;BME280;7533;51.278;12.588;2023-08-24T00:56:25;100394.56;;;28.86;58.02
14882;BME280;7533;51.278;12.588;2023-08-24T01:01:29;100390.59;;;29.08;57.42
14882;BME280;7533;51.278;12.588;2023-08-24T01:06:33;100400.09;;;29.04;57.19
14882;BME280;7533;51.278;12.588;2023-08-24T01:11:45;100406.72;;;29.02;57.56
14882;BME280;7533;51.278;12.588;2023-08-24T01:16:50;100412.53;;;29.07;57.21
14882;BME280;7533;51.278;12.588;2023-08-24T01:22:01;100406.59;;;28.93;57.70
14882;BME280;7533;51.278;12.588;2023-08-24T01:27:08;100395.84;;;28.92;57.73
14882;BME280;7533;51.278;12.588;2023-08-24T01:32:13;100396.56;;;28.94;57.23
14882;BME280;7533;51.278;12.588;2023-08-24T01:37:16;100395.09;;;28.90;57.44
14882;BME280;7533;51.278;12.588;2023-08-24T01:42:26;100386.41;;;28.86;57.36
14882;BME280;7533;51.278;12.588;2023-08-24T01:47:32;100384.75;;;28.76;57.84
14882;BME280;7533;51.278;12.588;2023-08-24T01:52:36;100388.50;;;28.65;58.41
14882;BME280;7533;51.278;12.588;2023-08-24T01:57:41;100392.25;;;28.64;57.99
14882;BME280;7533;51.278;12.588;2023-08-24T02:06:47;100392.28;;;28.54;58.37
14882;BME280;7533;51.278;12.588;2023-08-24T02:11:50;100384.88;;;28.46;58.64
14882;BME280;7533;51.278;12.588;2023-08-24T02:16:53;100385.31;;;28.42;58.35
14882;BME280;7533;51.278;12.588;2023-08-24T02:21:57;100375.56;;;28.39;58.69
14882;BME280;7533;51.278;12.588;2023-08-24T02:27:00;100384.47;;;28.41;58.66
14882;BME280;7533;51.278;12.588;2023-08-24T02:32:03;100372.00;;;28.39;58.76
14882;BME280;7533;51.278;12.588;2023-08-24T02:37:08;100377.19;;;28.32;58.59
14882;BME280;7533;51.278;12.588;2023-08-24T02:42:10;100375.91;;;28.17;58.93
14882;BME280;7533;51.278;12.588;2023-08-24T02:47:13;100370.50;;;28.07;59.03
14882;BME280;7533;51.278;12.588;2023-08-24T02:52:18;100378.19;;;28.21;58.84
14882;BME280;7533;51.278;12.588;2023-08-24T02:57:21;100367.22;;;28.04;58.92
14882;BME280;7533;51.278;12.588;2023-08-24T03:02:24;100364.66;;;28.02;58.95
14882;BME280;7533;51.278;12.588;2023-08-24T03:07:28;100365.78;;;28.00;59.17
14882;BME280;7533;51.278;12.588;2023-08-24T03:12:31;100367.53;;;28.01;58.87
14882;BME280;7533;51.278;12.588;2023-08-24T03:17:34;100356.78;;;27.99;58.95
14882;BME280;7533;51.278;12.588;2023-08-24T03:22:38;100354.06;;;27.99;58.75
14882;BME280;7533;51.278;12.588;2023-08-24T03:27:42;100354.66;;;27.93;59.05
14882;BME280;7533;51.278;12.588;2023-08-24T03:32:45;100370.00;;;27.84;58.36
14882;BME280;7533;51.278;12.588;2023-08-24T03:37:49;100368.97;;;26.27;58.72
14882;BME280;7533;51.278;12.588;2023-08-24T03:42:53;100361.50;;;25.57;60.55
14882;BME280;7533;51.278;12.588;2023-08-24T03:47:56;100356.97;;;25.46;60.69
14882;BME280;7533;51.278;12.588;2023-08-24T03:53:02;100357.34;;;25.21;61.10
14882;BME280;7533;51.278;12.588;2023-08-24T03:58:06;100357.72;;;24.62;62.96
14882;BME280;7533;51.278;12.588;2023-08-24T04:03:10;100363.50;;;24.57;62.86
14882;BME280;7533;51.278;12.588;2023-08-24T04:08:14;100353.91;;;24.53;63.30
14882;BME280;7533;51.278;12.588;2023-08-24T04:13:17;100357.44;;;24.76;62.87
14882;BME280;7533;51.278;12.588;2023-08-24T04:18:20;100356.59;;;24.75;62.68
14882;BME280;7533;51.278;12.588;2023-08-24T04:23:25;100366.66;;;24.73;62.49
14882;BME280;7533;51.278;12.588;2023-08-24T04:28:28;100368.38;;;24.74;62.78
14882;BME280;7533;51.278;12.588;2023-08-24T04:33:31;100359.19;;;24.66;62.82
14882;BME280;7533;51.278;12.588;2023-08-24T04:38:35;100356.34;;;24.22;64.60
14882;BME280;7533;51.278;12.588;2023-08-24T04:43:38;100364.22;;;24.14;64.86
14882;BME280;7533;51.278;12.588;2023-08-24T04:48:41;100369.00;;;24.22;65.92
14882;BME280;7533;51.278;12.588;2023-08-24T04:53:45;100367.28;;;24.21;65.48
14882;BME280;7533;51.278;12.588;2023-08-24T04:58:54;100368.28;;;24.09;65.94
14882;BME280;7533;51.278;12.588;2023-08-24T05:03:58;100362.88;;;24.09;65.41
14882;BME280;7533;51.278;12.588;2023-08-24T05:09:02;100367.41;;;23.97;65.79
14882;BME280;7533;51.278;12.588;2023-08-24T05:14:06;100365.19;;;23.91;65.91
14882;BME280;7533;51.278;12.588;2023-08-24T05:19:08;100364.91;;;23.94;67.01
14882;BME280;7533;51.278;12.588;2023-08-24T05:24:13;100359.63;;;23.81;66.93
14882;BME280;7533;51.278;12.588;2023-08-24T05:29:15;100367.97;;;23.78;66.69
14882;BME280;7533;51.278;12.588;2023-08-24T05:34:18;100368.31;;;23.73;67.30
14882;BME280;7533;51.278;12.588;2023-08-24T05:39:23;100371.78;;;23.75;68.07
14882;BME280;7533;51.278;12.588;2023-08-24T05:44:25;100374.50;;;23.52;68.38
14882;BME280;7533;51.278;12.588;2023-08-24T05:49:28;100374.72;;;23.48;68.46
14882;BME280;7533;51.278;12.588;2023-08-24T05:54:33;100366.44;;;23.39;69.07
14882;BME280;7533;51.278;12.588;2023-08-24T05:59:36;100361.34;;;23.47;69.46
14882;BME280;7533;51.278;12.588;2023-08-24T06:04:39;100372.72;;;23.39;69.76
14882;BME280;7533;51.278;12.588;2023-08-24T06:09:43;100370.25;;;23.36;70.01
14882;BME280;7533;51.278;12.588;2023-08-24T06:14:46;100371.38;;;23.45;69.87
14882;BME280;7533;51.278;12.588;2023-08-24T06:19:51;100367.44;;;23.38;70.41
14882;BME280;7533;51.278;12.588;2023-08-24T06:24:56;100370.44;;;23.46;70.02
14882;BME280;7533;51.278;12.588;2023-08-24T06:30:02;100354.69;;;23.51;70.67
14882;BME280;7533;51.278;12.588;2023-08-24T06:35:06;100357.16;;;23.78;69.85
14882;BME280;7533;51.278;12.588;2023-08-24T06:40:11;100350.19;;;23.98;69.29
14882;BME280;7533;51.278;12.588;2023-08-24T06:45:16;100338.75;;;24.17;69.00
14882;BME280;7533;51.278;12.588;2023-08-24T06:50:20;100344.31;;;24.26;68.66
14882;BME280;7533;51.278;12.588;2023-08-24T06:55:24;100342.94;;;24.32;68.84
14882;BME280;7533;51.278;12.588;2023-08-24T07:00:27;100340.88;;;24.58;67.91
14882;BME280;7533;51.278;12.588;2023-08-24T07:05:31;100344.66;;;24.67;68.53
14882;BME280;7533;51.278;12.588;2023-08-24T07:10:39;100330.25;;;24.77;68.09
14882;BME280;7533;51.278;12.588;2023-08-24T07:15:42;100348.00;;;24.70;68.33
14882;BME280;7533;51.278;12.588;2023-08-24T07:20:47;100345.97;;;24.84;67.66
14882;BME280;7533;51.278;12.588;2023-08-24T07:25:51;100344.22;;;24.94;67.35
14882;BME280;7533;51.278;12.588;2023-08-24T07:30:54;100350.19;;;24.76;67.55
14882;BME280;7533;51.278;12.588;2023-08-24T07:35:58;100356.06;;;24.93;67.63
14882;BME280;7533;51.278;12.588;2023-08-24T07:41:07;100357.75;;;25.05;67.43
14882;BME280;7533;51.278;12.588;2023-08-24T07:46:11;100355.88;;;25.17;67.13
14882;BME280;7533;51.278;12.588;2023-08-24T07:51:13;100356.88;;;25.16;66.36
14882;BME280;7533;51.278;12.588;2023-08-24T07:56:18;100347.50;;;25.20;66.11
14882;BME280;7533;51.278;12.588;2023-08-24T08:01:21;100340.31;;;25.30;65.56
14882;BME280;7533;51.278;12.588;2023-08-24T08:06:24;100338.16;;;25.45;65.79
14882;BME280;7533;51.278;12.588;2023-08-24T08:11:29;100328.97;;;25.57;65.97
14882;BME280;7533;51.278;12.588;2023-08-24T08:16:32;100327.44;;;25.64;65.27
14882;BME280;7533;51.278;12.588;2023-08-24T08:21:36;100321.38;;;25.72;64.83
14882;BME280;7533;51.278;12.588;2023-08-24T08:26:40;100316.31;;;25.78;64.74
14882;BME280;7533;51.278;12.588;2023-08-24T08:31:43;100313.25;;;25.93;65.11
14882;BME280;7533;51.278;12.588;2023-08-24T08:36:46;100308.72;;;26.03;64.39
14882;BME280;7533;51.278;12.588;2023-08-24T08:41:51;100303.88;;;26.06;64.14
14882;BME280;7533;51.278;12.588;2023-08-24T08:46:54;100288.78;;;26.14;64.24
14882;BME280;7533;51.278;12.588;2023-08-24T08:51:57;100290.53;;;26.24;64.22
14882;BME280;7533;51.278;12.588;2023-08-24T08:57:02;100288.00;;;26.32;63.87
14882;BME280;7533;51.278;12.588;2023-08-24T09:02:05;100287.78;;;26.45;63.16
14882;BME280;7533;51.278;12.588;2023-08-24T09:07:13;100275.22;;;26.54;61.82
14882;BME280;7533;51.278;12.588;2023-08-24T09:12:18;100262.19;;;26.48;62.29
14882;BME280;7533;51.278;12.588;2023-08-24T09:17:21;100264.25;;;26.55;63.18
14882;BME280;7533;51.278;12.588;2023-08-24T09:22:24;100267.97;;;26.74;62.51
14882;BME280;7533;51.278;12.588;2023-08-24T09:27:28;100271.41;;;26.76;62.18
14882;BME280;7533;51.278;12.588;2023-08-24T09:32:32;100271.25;;;26.87;62.37
14882;BME280;7533;51.278;12.588;2023-08-24T09:37:36;100269.13;;;26.90;62.08
14882;BME280;7533;51.278;12.588;2023-08-24T09:42:42;100247.84;;;26.96;62.30
14882;BME280;7533;51.278;12.588;2023-08-24T09:47:46;100251.69;;;27.03;62.83
14882;BME280;7533;51.278;12.588;2023-08-24T09:52:53;100248.25;;;27.01;62.78
14882;BME280;7533;51.278;12.588;2023-08-24T09:58:03;100252.56;;;27.13;62.70
14882;BME280;7533;51.278;12.588;2023-08-24T10:03:11;100232.81;;;27.21;62.47
14882;BME280;7533;51.278;12.588;2023-08-24T10:08:20;100231.38;;;27.26;62.70
14882;BME280;7533;51.278;12.588;2023-08-24T10:13:31;100223.66;;;27.31;62.86
14882;BME280;7533;51.278;12.588;2023-08-24T10:18:38;100212.19;;;27.37;62.80
14882;BME280;7533;51.278;12.588;2023-08-24T10:23:43;100203.44;;;27.43;62.94
14882;BME280;7533;51.278;12.588;2023-08-24T10:28:50;100197.41;;;27.50;63.16
14882;BME280;7533;51.278;12.588;2023-08-24T10:33:53;100190.00;;;27.52;63.12
14882;BME280;7533;51.278;12.588;2023-08-24T10:39:03;100180.66;;;27.54;62.88
14882;BME280;7533;51.278;12.588;2023-08-24T10:44:20;100170.22;;;27.59;62.33
14882;BME280;7533;51.278;12.588;2023-08-24T10:49:29;100142.13;;;27.68;62.81
14882;BME280;7533;51.278;12.588;2023-08-24T10:54:32;100110.97;;;27.63;62.67
14882;BME280;7533;51.278;12.588;2023-08-24T10:59:38;100109.47;;;27.78;61.39
14882;BME280;7533;51.278;12.588;2023-08-24T11:05:05;100089.19;;;27.73;62.49
14882;BME280;7533;51.278;12.588;2023-08-24T11:10:12;100082.81;;;27.82;62.75
14882;BME280;7533;51.278;12.588;2023-08-24T11:15:29;100074.75;;;27.90;62.47
14882;BME280;7533;51.278;12.588;2023-08-24T11:20:33;100074.28;;;27.94;62.82
14882;BME280;7533;51.278;12.588;2023-08-24T11:25:36;100082.38;;;27.86;62.75
14882;BME280;7533;51.278;12.588;2023-08-24T11:30:42;100088.59;;;27.97;62.59
14882;BME280;7533;51.278;12.588;2023-08-24T11:35:45;100092.00;;;27.99;62.34
14882;BME280;7533;51.278;12.588;2023-08-24T11:40:49;100093.59;;;28.01;61.72
14882;BME280;7533;51.278;12.588;2023-08-24T11:45:54;100087.88;;;27.94;61.80
14882;BME280;7533;51.278;12.588;2023-08-24T11:50:58;100079.88;;;27.93;61.88
14882;BME280;7533;51.278;12.588;2023-08-24T11:56:02;100082.84;;;28.00;62.00
14882;BME280;7533;51.278;12.588;2023-08-24T12:01:11;100072.22;;;28.06;61.82
14882;BME280;7533;51.278;12.588;2023-08-24T12:06:16;100071.03;;;28.09;61.75
14882;BME280;7533;51.278;12.588;2023-08-24T12:11:20;100092.75;;;28.01;61.45
14882;BME280;7533;51.278;12.588;2023-08-24T12:16:31;100094.84;;;28.07;61.58
14882;BME280;7533;51.278;12.588;2023-08-24T12:21:35;100077.16;;;28.11;61.11
14882;BME280;7533;51.278;12.588;2023-08-24T12:26:38;100087.75;;;28.14;61.47
14882;BME280;7533;51.278;12.588;2023-08-24T12:31:43;100070.88;;;28.28;61.20
14882;BME280;7533;51.278;12.588;2023-08-24T12:36:47;100061.16;;;28.26;62.05
14882;BME280;7533;51.278;12.588;2023-08-24T12:41:53;100064.88;;;28.34;61.94
14882;BME280;7533;51.278;12.588;2023-08-24T12:46:58;100043.53;;;28.48;62.51
14882;BME280;7533;51.278;12.588;2023-08-24T12:52:03;100034.19;;;28.32;62.61
14882;BME280;7533;51.278;12.588;2023-08-24T12:57:08;100012.56;;;28.31;61.82
14882;BME280;7533;51.278;12.588;2023-08-24T13:02:18;99998.81;;;28.32;61.74
14882;BME280;7533;51.278;12.588;2023-08-24T13:07:34;100010.31;;;28.44;61.45
14882;BME280;7533;51.278;12.588;2023-08-24T13:12:38;100009.22;;;28.37;62.76
14882;BME280;7533;51.278;12.588;2023-08-24T13:17:42;99995.69;;;28.27;63.32
14882;BME280;7533;51.278;12.588;2023-08-24T13:22:49;99985.28;;;28.40;63.46
14882;BME280;7533;51.278;12.588;2023-08-24T13:27:56;99979.13;;;28.38;63.71
14882;BME280;7533;51.278;12.588;2023-08-24T13:33:03;99966.75;;;28.44;62.97
14882;BME280;7533;51.278;12.588;2023-08-24T13:38:09;99961.31;;;28.44;62.79
14882;BME280;7533;51.278;12.588;2023-08-24T13:43:22;99954.53;;;28.48;62.43
14882;BME280;7533;51.278;12.588;2023-08-24T13:48:26;99956.06;;;28.51;62.44
14882;BME280;7533;51.278;12.588;2023-08-24T13:53:31;99943.84;;;28.55;61.92
14882;BME280;7533;51.278;12.588;2023-08-24T13:58:34;99943.47;;;28.50;62.51
14882;BME280;7533;51.278;12.588;2023-08-24T14:03:39;99934.00;;;28.62;62.27
14882;BME280;7533;51.278;12.588;2023-08-24T14:08:45;99919.78;;;28.68;62.25
14882;BME280;7533;51.278;12.588;2023-08-24T14:13:48;99915.69;;;28.72;62.78
14882;BME280;7533;51.278;12.588;2023-08-24T14:18:53;99893.59;;;28.75;63.07
14882;BME280;7533;51.278;12.588;2023-08-24T14:23:56;99899.72;;;28.77;63.45
14882;BME280;7533;51.278;12.588;2023-08-24T14:28:59;99897.69;;;28.79;63.36
14882;BME280;7533;51.278;12.588;2023-08-24T14:34:04;99895.47;;;28.83;63.94
14882;BME280;7533;51.278;12.588;2023-08-24T14:39:09;99903.34;;;28.86;63.76
14882;BME280;7533;51.278;12.588;2023-08-24T14:44:13;99899.25;;;28.90;63.96
14882;BME280;7533;51.278;12.588;2023-08-24T14:49:20;99902.31;;;28.87;64.61
14882;BME280;7533;51.278;12.588;2023-08-24T14:54:27;99894.50;;;28.92;64.52
14882;BME280;7533;51.278;12.588;2023-08-24T14:59:30;99896.78;;;28.96;64.92
14882;BME280;7533;51.278;12.588;2023-08-24T15:04:35;99905.41;;;28.92;65.02
14882;BME280;7533;51.278;12.588;2023-08-24T15:09:44;99897.41;;;28.90;65.09
14882;BME280;7533;51.278;12.588;2023-08-24T15:14:57;99873.94;;;28.97;65.37
14882;BME280;7533;51.278;12.588;2023-08-24T15:20:03;99866.81;;;29.05;65.43
14882;BME280;7533;51.278;12.588;2023-08-24T15:25:10;99857.97;;;29.03;65.69
14882;BME280;7533;51.278;12.588;2023-08-24T15:30:13;99845.03;;;29.13;65.44
14882;BME280;7533;51.278;12.588;2023-08-24T15:35:18;99831.41;;;29.13;65.21
14882;BME280;7533;51.278;12.588;2023-08-24T15:40:30;99821.00;;;29.16;65.45
14882;BME280;7533;51.278;12.588;2023-08-24T15:45:34;99811.66;;;29.19;65.45
14882;BME280;7533;51.278;12.588;2023-08-24T15:50:38;99820.69;;;29.28;65.32
14882;BME280;7533;51.278;12.588;2023-08-24T15:55:41;99835.66;;;29.15;66.36
14882;BME280;7533;51.278;12.588;2023-08-24T16:00:45;99842.31;;;29.13;67.31
14882;BME280;7533;51.278;12.588;2023-08-24T16:05:55;99837.00;;;29.03;68.59
14882;BME280;7533;51.278;12.588;2023-08-24T16:10:59;99832.59;;;29.10;69.55
14882;BME280;7533;51.278;12.588;2023-08-24T16:16:02;99820.50;;;29.13;70.71
14882;BME280;7533;51.278;12.588;2023-08-24T16:21:08;99817.44;;;29.40;70.14
14882;BME280;7533;51.278;12.588;2023-08-24T16:26:11;99822.41;;;29.37;70.71
14882;BME280;7533;51.278;12.588;2023-08-24T16:31:15;99825.31;;;29.35;70.66
14882;BME280;7533;51.278;12.588;2023-08-24T16:36:19;99824.63;;;29.33;70.18
14882;BME280;7533;51.278;12.588;2023-08-24T16:41:22;99817.13;;;29.35;70.58
14882;BME280;7533;51.278;12.588;2023-08-24T16:46:25;99805.88;;;29.30;70.41
14882;BME280;7533;51.278;12.588;2023-08-24T16:51:30;99809.63;;;29.45;69.49
14882;BME280;7533;51.278;12.588;2023-08-24T16:56:33;99811.16;;;29.40;69.82
14882;BME280;7533;51.278;12.588;2023-08-24T17:01:37;99789.88;;;29.43;69.63
14882;BME280;7533;51.278;12.588;2023-08-24T17:06:41;99785.09;;;29.37;69.82
14882;BME280;7533;51.278;12.588;2023-08-24T17:11:44;99771.66;;;29.36;69.81
14882;BME280;7533;51.278;12.588;2023-08-24T17:16:47;99761.22;;;29.39;69.68
14882;BME280;7533;51.278;12.588;2023-08-24T17:21:51;99771.81;;;29.42;69.50
14882;BME280;7533;51.278;12.588;2023-08-24T17:26:54;99773.66;;;29.34;69.55
14882;BME280;7533;51.278;12.588;2023-08-24T17:31:58;99774.50;;;29.34;69.73
14882;BME280;7533;51.278;12.588;2023-08-24T17:37:02;99764.63;;;29.33;69.35
14882;BME280;7533;51.278;12.588;2023-08-24T17:42:06;99789.16;;;29.33;69.42
14882;BME280;7533;51.278;12.588;2023-08-24T17:47:09;99763.97;;;29.31;69.38
14882;BME280;7533;51.278;12.588;2023-08-24T17:52:16;99772.31;;;29.30;69.55
14882;BME280;7533;51.278;12.588;2023-08-24T17:57:20;99763.81;;;29.41;68.91
14882;BME280;7533;51.278;12.588;2023-08-24T18:02:23;99746.75;;;29.39;68.56
14882;BME280;7533;51.278;12.588;2023-08-24T18:07:28;99760.72;;;29.52;68.09
14882;BME280;7533;51.278;12.588;2023-08-24T18:12:31;99753.25;;;29.54;68.25
14882;BME280;7533;51.278;12.588;2023-08-24T18:17:34;99744.03;;;29.71;67.68
14882;BME280;7533;51.278;12.588;2023-08-24T18:22:39;99736.50;;;29.82;67.14
14882;BME280;7533;51.278;12.588;2023-08-24T18:27:42;99723.72;;;29.82;66.94
14882;BME280;7533;51.278;12.588;2023-08-24T18:32:46;99722.31;;;29.94;66.66
14882;BME280;7533;51.278;12.588;2023-08-24T18:37:51;99726.06;;;29.93;66.63
14882;BME280;7533;51.278;12.588;2023-08-24T18:42:54;99725.34;;;29.99;66.48
14882;BME280;7533;51.278;12.588;2023-08-24T18:47:57;99716.97;;;30.09;66.53
14882;BME280;7533;51.278;12.588;2023-08-24T18:53:03;99701.09;;;30.13;66.10
14882;BME280;7533;51.278;12.588;2023-08-24T18:58:06;99694.66;;;30.14;65.73
14882;BME280;7533;51.278;12.588;2023-08-24T19:03:10;99693.94;;;30.20;66.09
14882;BME280;7533;51.278;12.588;2023-08-24T19:08:15;99689.06;;;30.30;65.19
14882;BME280;7533;51.278;12.588;2023-08-24T19:13:20;99675.94;;;30.34;65.37
14882;BME280;7533;51.278;12.588;2023-08-24T19:18:23;99666.16;;;30.39;64.86
14882;BME280;7533;51.278;12.588;2023-08-24T19:23:29;99669.09;;;30.38;64.94
14882;BME280;7533;51.278;12.588;2023-08-24T19:28:32;99654.72;;;30.44;64.74
14882;BME280;7533;51.278;12.588;2023-08-24T19:33:35;99642.97;;;30.35;64.97
14882;BME280;7533;51.278;12.588;2023-08-24T19:38:40;99630.97;;;30.44;64.91
14882;BME280;7533;51.278;12.588;2023-08-24T19:43:44;99610.28;;;30.50;64.35
14882;BME280;7533;51.278;12.588;2023-08-24T19:48:47;99600.88;;;30.52;64.48
14882;BME280;7533;51.278;12.588;2023-08-24T19:53:52;99603.44;;;30.54;63.63
14882;BME280;7533;51.278;12.588;2023-08-24T19:58:55;99610.34;;;30.65;63.36
14882;BME280;7533;51.278;12.588;2023-08-24T20:04:00;99597.06;;;30.62;63.31
14882;BME280;7533;51.278;12.588;2023-08-24T20:09:07;99590.53;;;30.71;63.21
14882;BME280;7533;51.278;12.588;2023-08-24T20:14:14;99576.97;;;30.77;63.07
14882;BME280;7533;51.278;12.588;2023-08-24T20:19:17;99575.44;;;30.75;62.99
14882;BME280;7533;51.278;12.588;2023-08-24T20:24:22;99569.28;;;30.81;62.73
14882;BME280;7533;51.278;12.588;2023-08-24T20:29:27;99566.06;;;30.77;62.24
14882;BME280;7533;51.278;12.588;2023-08-24T20:34:30;99574.34;;;30.84;62.57
14882;BME280;7533;51.278;12.588;2023-08-24T20:39:35;99583.59;;;30.83;62.34
14882;BME280;7533;51.278;12.588;2023-08-24T20:44:38;99588.13;;;30.91;62.37
14882;BME280;7533;51.278;12.588;2023-08-24T20:49:41;99584.34;;;30.92;62.27
14882;BME280;7533;51.278;12.588;2023-08-24T20:54:46;99586.06;;;30.93;62.08
14882;BME280;7533;51.278;12.588;2023-08-24T20:59:49;99584.53;;;30.90;62.14
14882;BME280;7533;51.278;12.588;2023-08-24T21:04:52;99581.16;;;30.88;62.03
14882;BME280;7533;51.278;12.588;2023-08-24T21:09:57;99566.25;;;30.91;62.00
14882;BME280;7533;51.278;12.588;2023-08-24T21:15:00;99571.19;;;30.95;62.04
14882;BME280;7533;51.278;12.588;2023-08-24T21:20:05;99555.31;;;30.91;62.16
14882;BME280;7533;51.278;12.588;2023-08-24T21:25:15;99546.38;;;30.97;61.90
14882;BME280;7533;51.278;12.588;2023-08-24T21:30:18;99554.03;;;31.01;61.50
14882;BME280;7533;51.278;12.588;2023-08-24T21:35:22;99547.34;;;31.04;61.35
14882;BME280;7533;51.278;12.588;2023-08-24T21:40:26;99548.19;;;31.04;61.14
14882;BME280;7533;51.278;12.588;2023-08-24T21:45:30;99524.53;;;31.12;61.29
14882;BME280;7533;51.278;12.588;2023-08-24T21:50:33;99516.53;;;31.10;61.00
14882;BME280;7533;51.278;12.588;2023-08-24T21:55:38;99508.25;;;31.03;60.87
14882;BME280;7533;51.278;12.588;2023-08-24T22:00:41;99492.00;;;31.02;61.23
14882;BME280;7533;51.278;12.588;2023-08-24T22:05:45;99471.75;;;30.96;61.63
14882;BME280;7533;51.278;12.588;2023-08-24T22:10:49;99455.25;;;30.90;61.80
14882;BME280;7533;51.278;12.588;2023-08-24T22:15:52;99458.47;;;30.78;61.94
14882;BME280;7533;51.278;12.588;2023-08-24T22:20:55;99462.44;;;30.76;61.89
14882;BME280;7533;51.278;12.588;2023-08-24T22:26:00;99484.84;;;30.71;61.84
14882;BME280;7533;51.278;12.588;2023-08-24T22:31:04;99500.59;;;30.61;62.19
14882;BME280;7533;51.278;12.588;2023-08-24T22:36:08;99504.56;;;30.59;62.16
14882;BME280;7533;51.278;12.588;2023-08-24T22:41:12;99508.59;;;30.48;62.47
14882;BME280;7533;51.278;12.588;2023-08-24T22:46:16;99517.03;;;30.38;62.40
14882;BME280;7533;51.278;12.588;2023-08-24T22:51:19;99528.59;;;30.40;62.85
14882;BME280;7533;51.278;12.588;2023-08-24T22:56:23;99539.06;;;30.37;62.68
14882;BME280;7533;51.278;12.588;2023-08-24T23:01:26;99531.22;;;30.34;63.16
14882;BME280;7533;51.278;12.588;2023-08-24T23:06:45;99527.72;;;30.25;62.88
14882;BME280;7533;51.278;12.588;2023-08-24T23:11:50;99520.63;;;30.16;63.55
14882;BME280;7533;51.278;12.588;2023-08-24T23:16:54;99532.19;;;30.18;63.60
14882;BME280;7533;51.278;12.588;2023-08-24T23:21:57;99527.13;;;30.15;63.23
14882;BME280;7533;51.278;12.588;2023-08-24T23:27:02;99511.78;;;30.06;63.70
14882;BME280;7533;51.278;12.588;2023-08-24T23:32:05;99501.41;;;30.01;63.75
14882;BME280;7533;51.278;12.588;2023-08-24T23:37:09;99492.03;;;30.03;64.02
14882;BME280;7533;51.278;12.588;2023-08-24T23:42:13;99485.03;;;30.01;63.79
14882;BME280;7533;51.278;12.588;2023-08-24T23:47:16;99480.50;;;29.93;63.85
14882;BME280;7533;51.278;12.588;2023-08-24T23:52:19;99481.53;;;29.92;63.60
14882;BME280;7533;51.278;12.588;2023-08-24T23:57:23;99476.06;;;29.92;64.21
